Main page
METAR-TAF:

METAR-TAF

Airports :

RAF Fairford

Fairford, England

latitude: 51-41N, longitude: 001-47W, elevation: 87 m

Current weather observation

The report was made 19 minutes ago, at 08:56 UTC
Wind 4 kt from the West
Temperature 7°C
Humidity 76%
Pressure 1035 hPa
Visibility 10 km or more
Few clouds at a height of 3500 ft

METAR: EGVA 260856Z 27004KT 9999 FEW035 07/03 A3056 RMK AO2A SLP355 T00700031 51005 RVRNO $

Time: 09:15 (09:15 UTC)


TAF: missing

Weather observations and forecasts of more than 4000 airports (METAR and TAF reports).

The available stations are represented by yellow and red dots on the map.

Hover mouse over dot to see the name of the station.

Then click to see weather observations and forecasts.

To change the map : click on the green buttons with a black cross to zoom in, on the green button with a dash to zoom out, or on the green arrows for adjacent maps.


METAR-TAF: